sensor_id;sensor_type;location;lat;lon;timestamp;P1;durP1;ratioP1;P2;durP2;ratioP2
11957;SDS011;6039;52.576;13.348;2023-03-18T00:02:26;7.47;;;4.40;;
11957;SDS011;6039;52.576;13.348;2023-03-18T00:07:34;7.73;;;4.27;;
11957;SDS011;6039;52.576;13.348;2023-03-18T00:12:39;8.70;;;4.53;;
11957;SDS011;6039;52.576;13.348;2023-03-18T00:17:44;10.90;;;4.17;;
11957;SDS011;6039;52.576;13.348;2023-03-18T00:22:50;6.77;;;4.10;;
11957;SDS011;6039;52.576;13.348;2023-03-18T00:27:56;6.93;;;4.60;;
11957;SDS011;6039;52.576;13.348;2023-03-18T00:33:00;6.97;;;4.20;;
11957;SDS011;6039;52.576;13.348;2023-03-18T00:38:07;9.97;;;4.27;;
11957;SDS011;6039;52.576;13.348;2023-03-18T00:43:20;5.90;;;3.70;;
11957;SDS011;6039;52.576;13.348;2023-03-18T00:48:28;7.17;;;4.10;;
11957;SDS011;6039;52.576;13.348;2023-03-18T00:53:35;7.37;;;4.07;;
11957;SDS011;6039;52.576;13.348;2023-03-18T00:58:39;6.93;;;3.93;;
11957;SDS011;6039;52.576;13.348;2023-03-18T01:03:44;7.40;;;4.07;;
11957;SDS011;6039;52.576;13.348;2023-03-18T01:08:51;6.33;;;3.93;;
11957;SDS011;6039;52.576;13.348;2023-03-18T01:13:56;6.67;;;4.07;;
11957;SDS011;6039;52.576;13.348;2023-03-18T01:19:01;7.93;;;4.07;;
11957;SDS011;6039;52.576;13.348;2023-03-18T01:24:08;5.70;;;3.47;;
11957;SDS011;6039;52.576;13.348;2023-03-18T01:29:12;5.63;;;3.53;;
11957;SDS011;6039;52.576;13.348;2023-03-18T01:34:17;7.03;;;3.87;;
11957;SDS011;6039;52.576;13.348;2023-03-18T01:39:23;7.07;;;4.00;;
11957;SDS011;6039;52.576;13.348;2023-03-18T01:44:27;6.70;;;4.03;;
11957;SDS011;6039;52.576;13.348;2023-03-18T01:49:33;5.93;;;3.70;;
11957;SDS011;6039;52.576;13.348;2023-03-18T01:54:45;13.90;;;3.97;;
11957;SDS011;6039;52.576;13.348;2023-03-18T01:59:53;7.53;;;4.00;;
11957;SDS011;6039;52.576;13.348;2023-03-18T02:05:00;5.40;;;3.27;;
11957;SDS011;6039;52.576;13.348;2023-03-18T02:10:09;6.73;;;4.03;;
11957;SDS011;6039;52.576;13.348;2023-03-18T02:15:16;6.77;;;3.90;;
11957;SDS011;6039;52.576;13.348;2023-03-18T02:20:29;7.20;;;3.70;;
11957;SDS011;6039;52.576;13.348;2023-03-18T02:25:43;5.67;;;3.73;;
11957;SDS011;6039;52.576;13.348;2023-03-18T02:30:55;5.40;;;3.60;;
11957;SDS011;6039;52.576;13.348;2023-03-18T02:36:02;6.40;;;3.77;;
11957;SDS011;6039;52.576;13.348;2023-03-18T02:41:11;7.17;;;3.83;;
11957;SDS011;6039;52.576;13.348;2023-03-18T02:46:26;7.40;;;3.77;;
11957;SDS011;6039;52.576;13.348;2023-03-18T02:51:33;7.13;;;3.90;;
11957;SDS011;6039;52.576;13.348;2023-03-18T02:56:38;8.57;;;3.63;;
11957;SDS011;6039;52.576;13.348;2023-03-18T03:01:47;5.87;;;3.67;;
11957;SDS011;6039;52.576;13.348;2023-03-18T03:06:55;5.00;;;3.37;;
11957;SDS011;6039;52.576;13.348;2023-03-18T03:12:01;6.40;;;3.60;;
11957;SDS011;6039;52.576;13.348;2023-03-18T03:17:08;6.00;;;3.90;;
11957;SDS011;6039;52.576;13.348;2023-03-18T03:22:12;7.17;;;3.37;;
11957;SDS011;6039;52.576;13.348;2023-03-18T03:27:16;5.63;;;3.57;;
11957;SDS011;6039;52.576;13.348;2023-03-18T03:32:23;5.90;;;3.67;;
11957;SDS011;6039;52.576;13.348;2023-03-18T03:37:28;7.17;;;4.10;;
11957;SDS011;6039;52.576;13.348;2023-03-18T03:42:32;5.63;;;3.60;;
11957;SDS011;6039;52.576;13.348;2023-03-18T03:47:39;4.83;;;3.17;;
11957;SDS011;6039;52.576;13.348;2023-03-18T03:52:45;7.93;;;4.10;;
11957;SDS011;6039;52.576;13.348;2023-03-18T03:57:49;7.00;;;4.07;;
11957;SDS011;6039;52.576;13.348;2023-03-18T04:02:56;6.67;;;3.57;;
11957;SDS011;6039;52.576;13.348;2023-03-18T04:08:00;7.20;;;3.90;;
11957;SDS011;6039;52.576;13.348;2023-03-18T04:13:04;6.83;;;3.70;;
11957;SDS011;6039;52.576;13.348;2023-03-18T04:18:11;8.73;;;3.73;;
11957;SDS011;6039;52.576;13.348;2023-03-18T04:23:15;6.40;;;3.63;;
11957;SDS011;6039;52.576;13.348;2023-03-18T04:28:20;6.83;;;3.47;;
11957;SDS011;6039;52.576;13.348;2023-03-18T04:33:26;5.10;;;3.57;;
11957;SDS011;6039;52.576;13.348;2023-03-18T04:38:31;6.03;;;3.40;;
11957;SDS011;6039;52.576;13.348;2023-03-18T04:43:35;6.60;;;3.83;;
11957;SDS011;6039;52.576;13.348;2023-03-18T04:48:41;8.50;;;3.80;;
11957;SDS011;6039;52.576;13.348;2023-03-18T04:53:45;6.03;;;3.67;;
11957;SDS011;6039;52.576;13.348;2023-03-18T04:58:49;6.07;;;3.80;;
11957;SDS011;6039;52.576;13.348;2023-03-18T05:03:56;7.00;;;3.67;;
11957;SDS011;6039;52.576;13.348;2023-03-18T05:09:00;7.13;;;4.27;;
11957;SDS011;6039;52.576;13.348;2023-03-18T05:14:04;6.83;;;3.77;;
11957;SDS011;6039;52.576;13.348;2023-03-18T05:19:11;5.63;;;3.57;;
11957;SDS011;6039;52.576;13.348;2023-03-18T05:24:16;7.27;;;3.60;;
11957;SDS011;6039;52.576;13.348;2023-03-18T05:29:20;7.07;;;3.67;;
11957;SDS011;6039;52.576;13.348;2023-03-18T05:34:26;8.80;;;4.30;;
11957;SDS011;6039;52.576;13.348;2023-03-18T05:39:31;8.10;;;3.43;;
11957;SDS011;6039;52.576;13.348;2023-03-18T05:44:36;6.33;;;3.13;;
11957;SDS011;6039;52.576;13.348;2023-03-18T05:49:42;10.53;;;4.03;;
11957;SDS011;6039;52.576;13.348;2023-03-18T05:54:47;5.93;;;3.63;;
11957;SDS011;6039;52.576;13.348;2023-03-18T05:59:51;5.87;;;3.37;;
11957;SDS011;6039;52.576;13.348;2023-03-18T06:04:58;5.50;;;3.50;;
11957;SDS011;6039;52.576;13.348;2023-03-18T06:10:02;7.37;;;3.77;;
11957;SDS011;6039;52.576;13.348;2023-03-18T06:15:07;6.43;;;3.43;;
11957;SDS011;6039;52.576;13.348;2023-03-18T06:20:15;5.93;;;4.03;;
11957;SDS011;6039;52.576;13.348;2023-03-18T06:25:20;5.40;;;3.40;;
11957;SDS011;6039;52.576;13.348;2023-03-18T06:30:25;7.10;;;3.90;;
11957;SDS011;6039;52.576;13.348;2023-03-18T06:35:32;6.97;;;4.03;;
11957;SDS011;6039;52.576;13.348;2023-03-18T06:40:36;5.27;;;3.60;;
11957;SDS011;6039;52.576;13.348;2023-03-18T06:45:40;8.07;;;4.30;;
11957;SDS011;6039;52.576;13.348;2023-03-18T06:50:46;7.63;;;3.83;;
11957;SDS011;6039;52.576;13.348;2023-03-18T06:55:50;7.83;;;3.93;;
11957;SDS011;6039;52.576;13.348;2023-03-18T07:00:55;6.47;;;3.90;;
11957;SDS011;6039;52.576;13.348;2023-03-18T07:06:03;6.47;;;3.77;;
11957;SDS011;6039;52.576;13.348;2023-03-18T07:11:08;5.57;;;3.50;;
11957;SDS011;6039;52.576;13.348;2023-03-18T07:16:12;7.73;;;4.00;;
11957;SDS011;6039;52.576;13.348;2023-03-18T07:21:19;10.63;;;4.30;;
11957;SDS011;6039;52.576;13.348;2023-03-18T07:26:23;8.17;;;4.20;;
11957;SDS011;6039;52.576;13.348;2023-03-18T07:31:28;5.83;;;4.07;;
11957;SDS011;6039;52.576;13.348;2023-03-18T07:36:35;5.97;;;3.90;;
11957;SDS011;6039;52.576;13.348;2023-03-18T07:41:39;7.03;;;3.93;;
11957;SDS011;6039;52.576;13.348;2023-03-18T07:46:43;7.53;;;4.20;;
11957;SDS011;6039;52.576;13.348;2023-03-18T07:51:49;6.63;;;4.10;;
11957;SDS011;6039;52.576;13.348;2023-03-18T07:56:53;6.60;;;4.03;;
11957;SDS011;6039;52.576;13.348;2023-03-18T08:02:01;7.20;;;4.30;;
11957;SDS011;6039;52.576;13.348;2023-03-18T08:07:09;8.53;;;4.47;;
11957;SDS011;6039;52.576;13.348;2023-03-18T08:12:16;5.97;;;3.93;;
11957;SDS011;6039;52.576;13.348;2023-03-18T08:17:20;8.70;;;4.40;;
11957;SDS011;6039;52.576;13.348;2023-03-18T08:22:26;6.57;;;4.27;;
11957;SDS011;6039;52.576;13.348;2023-03-18T08:27:30;5.93;;;4.00;;
11957;SDS011;6039;52.576;13.348;2023-03-18T08:32:34;8.97;;;4.10;;
11957;SDS011;6039;52.576;13.348;2023-03-18T08:37:41;6.40;;;3.90;;
11957;SDS011;6039;52.576;13.348;2023-03-18T08:42:46;5.73;;;3.67;;
11957;SDS011;6039;52.576;13.348;2023-03-18T08:47:50;6.30;;;3.97;;
11957;SDS011;6039;52.576;13.348;2023-03-18T08:52:58;5.90;;;4.00;;
11957;SDS011;6039;52.576;13.348;2023-03-18T08:58:03;5.13;;;3.30;;
11957;SDS011;6039;52.576;13.348;2023-03-18T09:03:07;6.47;;;3.97;;
11957;SDS011;6039;52.576;13.348;2023-03-18T09:08:14;6.77;;;3.80;;
11957;SDS011;6039;52.576;13.348;2023-03-18T09:13:18;5.93;;;3.90;;
11957;SDS011;6039;52.576;13.348;2023-03-18T09:18:22;4.80;;;3.60;;
11957;SDS011;6039;52.576;13.348;2023-03-18T09:23:29;6.93;;;3.80;;
11957;SDS011;6039;52.576;13.348;2023-03-18T09:28:34;4.70;;;3.43;;
11957;SDS011;6039;52.576;13.348;2023-03-18T09:33:38;7.83;;;4.27;;
11957;SDS011;6039;52.576;13.348;2023-03-18T09:38:44;5.43;;;3.83;;
11957;SDS011;6039;52.576;13.348;2023-03-18T09:43:51;6.63;;;3.67;;
11957;SDS011;6039;52.576;13.348;2023-03-18T09:49:12;6.53;;;3.90;;
11957;SDS011;6039;52.576;13.348;2023-03-18T09:54:27;5.60;;;3.53;;
11957;SDS011;6039;52.576;13.348;2023-03-18T09:59:36;5.80;;;3.90;;
11957;SDS011;6039;52.576;13.348;2023-03-18T10:04:43;6.47;;;4.23;;
11957;SDS011;6039;52.576;13.348;2023-03-18T10:09:53;6.93;;;4.00;;
11957;SDS011;6039;52.576;13.348;2023-03-18T10:15:03;6.10;;;4.00;;
11957;SDS011;6039;52.576;13.348;2023-03-18T10:20:17;6.93;;;3.73;;
11957;SDS011;6039;52.576;13.348;2023-03-18T10:25:27;6.20;;;4.00;;
11957;SDS011;6039;52.576;13.348;2023-03-18T10:30:40;5.60;;;3.33;;
11957;SDS011;6039;52.576;13.348;2023-03-18T10:35:51;6.37;;;3.97;;
11957;SDS011;6039;52.576;13.348;2023-03-18T10:41:01;5.40;;;3.67;;
11957;SDS011;6039;52.576;13.348;2023-03-18T10:46:13;5.57;;;3.67;;
11957;SDS011;6039;52.576;13.348;2023-03-18T10:51:18;5.30;;;3.47;;
11957;SDS011;6039;52.576;13.348;2023-03-18T10:56:29;6.50;;;3.57;;
11957;SDS011;6039;52.576;13.348;2023-03-18T11:01:33;5.80;;;3.90;;
11957;SDS011;6039;52.576;13.348;2023-03-18T11:06:39;5.93;;;3.73;;
11957;SDS011;6039;52.576;13.348;2023-03-18T11:11:54;5.13;;;3.43;;
11957;SDS011;6039;52.576;13.348;2023-03-18T11:17:00;6.10;;;4.27;;
11957;SDS011;6039;52.576;13.348;2023-03-18T11:22:09;5.57;;;4.03;;
11957;SDS011;6039;52.576;13.348;2023-03-18T11:27:32;5.63;;;3.80;;
11957;SDS011;6039;52.576;13.348;2023-03-18T11:32:39;5.83;;;3.73;;
11957;SDS011;6039;52.576;13.348;2023-03-18T11:37:53;4.93;;;3.30;;
11957;SDS011;6039;52.576;13.348;2023-03-18T11:43:00;5.77;;;3.23;;
11957;SDS011;6039;52.576;13.348;2023-03-18T11:48:12;5.90;;;3.60;;
11957;SDS011;6039;52.576;13.348;2023-03-18T11:53:19;4.87;;;3.13;;
11957;SDS011;6039;52.576;13.348;2023-03-18T11:58:35;5.70;;;3.50;;
11957;SDS011;6039;52.576;13.348;2023-03-18T12:09:23;5.97;;;3.10;;
11957;SDS011;6039;52.576;13.348;2023-03-18T12:14:35;4.03;;;2.50;;
11957;SDS011;6039;52.576;13.348;2023-03-18T12:19:54;3.77;;;2.43;;
11957;SDS011;6039;52.576;13.348;2023-03-18T12:25:14;4.27;;;2.70;;
11957;SDS011;6039;52.576;13.348;2023-03-18T12:30:38;4.67;;;3.23;;
11957;SDS011;6039;52.576;13.348;2023-03-18T12:36:14;5.10;;;2.73;;
11957;SDS011;6039;52.576;13.348;2023-03-18T12:41:23;5.70;;;2.90;;
11957;SDS011;6039;52.576;13.348;2023-03-18T12:46:37;4.17;;;2.70;;
11957;SDS011;6039;52.576;13.348;2023-03-18T12:51:44;6.23;;;3.00;;
11957;SDS011;6039;52.576;13.348;2023-03-18T12:56:52;4.07;;;2.70;;
11957;SDS011;6039;52.576;13.348;2023-03-18T13:07:34;3.33;;;2.70;;
11957;SDS011;6039;52.576;13.348;2023-03-18T13:12:42;4.90;;;2.87;;
11957;SDS011;6039;52.576;13.348;2023-03-18T13:17:50;4.30;;;2.90;;
11957;SDS011;6039;52.576;13.348;2023-03-18T13:23:06;4.40;;;3.07;;
11957;SDS011;6039;52.576;13.348;2023-03-18T13:33:48;4.33;;;3.10;;
11957;SDS011;6039;52.576;13.348;2023-03-18T13:39:16;3.67;;;2.60;;
11957;SDS011;6039;52.576;13.348;2023-03-18T13:44:35;3.73;;;2.90;;
11957;SDS011;6039;52.576;13.348;2023-03-18T13:49:45;6.90;;;3.17;;
11957;SDS011;6039;52.576;13.348;2023-03-18T13:54:50;4.10;;;3.03;;
11957;SDS011;6039;52.576;13.348;2023-03-18T14:10:41;6.57;;;3.03;;
11957;SDS011;6039;52.576;13.348;2023-03-18T14:15:45;4.93;;;3.20;;
11957;SDS011;6039;52.576;13.348;2023-03-18T14:20:57;5.70;;;3.30;;
11957;SDS011;6039;52.576;13.348;2023-03-18T14:26:04;5.30;;;3.20;;
11957;SDS011;6039;52.576;13.348;2023-03-18T14:31:14;4.40;;;3.07;;
11957;SDS011;6039;52.576;13.348;2023-03-18T14:36:38;3.60;;;2.70;;
11957;SDS011;6039;52.576;13.348;2023-03-18T14:41:48;4.53;;;2.80;;
11957;SDS011;6039;52.576;13.348;2023-03-18T14:46:56;6.77;;;3.57;;
11957;SDS011;6039;52.576;13.348;2023-03-18T14:52:05;3.97;;;3.33;;
11957;SDS011;6039;52.576;13.348;2023-03-18T14:57:15;4.43;;;3.03;;
11957;SDS011;6039;52.576;13.348;2023-03-18T15:02:21;6.23;;;3.40;;
11957;SDS011;6039;52.576;13.348;2023-03-18T15:07:31;5.60;;;3.07;;
11957;SDS011;6039;52.576;13.348;2023-03-18T15:12:36;4.40;;;3.27;;
11957;SDS011;6039;52.576;13.348;2023-03-18T15:17:44;5.27;;;3.13;;
11957;SDS011;6039;52.576;13.348;2023-03-18T15:22:51;6.40;;;3.33;;
11957;SDS011;6039;52.576;13.348;2023-03-18T15:27:57;3.30;;;2.87;;
11957;SDS011;6039;52.576;13.348;2023-03-18T15:33:03;4.03;;;3.10;;
11957;SDS011;6039;52.576;13.348;2023-03-18T15:38:13;3.83;;;2.87;;
11957;SDS011;6039;52.576;13.348;2023-03-18T15:43:25;3.93;;;2.90;;
11957;SDS011;6039;52.576;13.348;2023-03-18T15:48:32;3.63;;;2.90;;
11957;SDS011;6039;52.576;13.348;2023-03-18T15:53:42;3.87;;;2.97;;
11957;SDS011;6039;52.576;13.348;2023-03-18T15:58:48;3.50;;;2.90;;
11957;SDS011;6039;52.576;13.348;2023-03-18T16:04:00;4.97;;;3.13;;
11957;SDS011;6039;52.576;13.348;2023-03-18T16:09:17;3.30;;;2.43;;
11957;SDS011;6039;52.576;13.348;2023-03-18T16:14:22;4.00;;;2.20;;
11957;SDS011;6039;52.576;13.348;2023-03-18T16:19:30;4.80;;;2.70;;
11957;SDS011;6039;52.576;13.348;2023-03-18T16:24:37;3.17;;;2.10;;
11957;SDS011;6039;52.576;13.348;2023-03-18T16:29:42;4.30;;;2.50;;
11957;SDS011;6039;52.576;13.348;2023-03-18T16:34:47;3.23;;;1.93;;
11957;SDS011;6039;52.576;13.348;2023-03-18T16:39:54;2.53;;;1.70;;
11957;SDS011;6039;52.576;13.348;2023-03-18T16:44:58;3.30;;;1.70;;
11957;SDS011;6039;52.576;13.348;2023-03-18T16:50:08;3.03;;;1.87;;
11957;SDS011;6039;52.576;13.348;2023-03-18T16:55:20;3.03;;;2.00;;
11957;SDS011;6039;52.576;13.348;2023-03-18T17:00:24;3.20;;;2.20;;
11957;SDS011;6039;52.576;13.348;2023-03-18T17:05:30;2.77;;;2.23;;
11957;SDS011;6039;52.576;13.348;2023-03-18T17:10:37;2.10;;;1.80;;
11957;SDS011;6039;52.576;13.348;2023-03-18T17:15:42;2.30;;;2.10;;
11957;SDS011;6039;52.576;13.348;2023-03-18T17:20:47;2.27;;;2.00;;
11957;SDS011;6039;52.576;13.348;2023-03-18T17:25:54;2.30;;;2.00;;
11957;SDS011;6039;52.576;13.348;2023-03-18T17:31:00;2.83;;;2.10;;
11957;SDS011;6039;52.576;13.348;2023-03-18T17:36:04;3.43;;;2.20;;
11957;SDS011;6039;52.576;13.348;2023-03-18T17:41:15;2.97;;;2.27;;
11957;SDS011;6039;52.576;13.348;2023-03-18T17:46:21;4.87;;;2.37;;
11957;SDS011;6039;52.576;13.348;2023-03-18T17:51:25;3.53;;;2.17;;
11957;SDS011;6039;52.576;13.348;2023-03-18T17:56:31;3.63;;;2.20;;
11957;SDS011;6039;52.576;13.348;2023-03-18T18:01:37;5.40;;;2.63;;
11957;SDS011;6039;52.576;13.348;2023-03-18T18:06:41;5.03;;;3.03;;
11957;SDS011;6039;52.576;13.348;2023-03-18T18:11:48;7.63;;;3.43;;
11957;SDS011;6039;52.576;13.348;2023-03-18T18:16:52;3.70;;;2.77;;
11957;SDS011;6039;52.576;13.348;2023-03-18T18:21:58;4.73;;;3.20;;
11957;SDS011;6039;52.576;13.348;2023-03-18T18:27:07;8.03;;;4.00;;
11957;SDS011;6039;52.576;13.348;2023-03-18T18:32:12;6.27;;;3.20;;
11957;SDS011;6039;52.576;13.348;2023-03-18T18:37:18;7.83;;;3.83;;
11957;SDS011;6039;52.576;13.348;2023-03-18T18:42:24;9.40;;;4.90;;
11957;SDS011;6039;52.576;13.348;2023-03-18T18:47:29;9.17;;;4.87;;
11957;SDS011;6039;52.576;13.348;2023-03-18T18:52:33;6.43;;;4.00;;
11957;SDS011;6039;52.576;13.348;2023-03-18T18:57:40;9.70;;;4.30;;
11957;SDS011;6039;52.576;13.348;2023-03-18T19:02:44;6.77;;;3.97;;
11957;SDS011;6039;52.576;13.348;2023-03-18T19:07:50;5.53;;;3.93;;
11957;SDS011;6039;52.576;13.348;2023-03-18T19:12:57;7.43;;;4.30;;
11957;SDS011;6039;52.576;13.348;2023-03-18T19:18:01;7.20;;;4.47;;
11957;SDS011;6039;52.576;13.348;2023-03-18T19:23:09;8.80;;;5.20;;
11957;SDS011;6039;52.576;13.348;2023-03-18T19:28:31;8.60;;;5.73;;
11957;SDS011;6039;52.576;13.348;2023-03-18T19:33:51;13.70;;;7.87;;
11957;SDS011;6039;52.576;13.348;2023-03-18T19:38:56;17.77;;;9.07;;
11957;SDS011;6039;52.576;13.348;2023-03-18T19:44:15;11.87;;;7.30;;
11957;SDS011;6039;52.576;13.348;2023-03-18T19:49:22;9.60;;;5.67;;
11957;SDS011;6039;52.576;13.348;2023-03-18T19:54:28;11.87;;;7.00;;
11957;SDS011;6039;52.576;13.348;2023-03-18T19:59:35;11.20;;;6.77;;
11957;SDS011;6039;52.576;13.348;2023-03-18T20:04:39;10.07;;;5.53;;
11957;SDS011;6039;52.576;13.348;2023-03-18T20:09:43;9.93;;;6.20;;
11957;SDS011;6039;52.576;13.348;2023-03-18T20:14:50;12.57;;;6.50;;
11957;SDS011;6039;52.576;13.348;2023-03-18T20:19:54;12.27;;;7.20;;
11957;SDS011;6039;52.576;13.348;2023-03-18T20:24:59;11.47;;;6.90;;
11957;SDS011;6039;52.576;13.348;2023-03-18T20:30:10;12.27;;;7.23;;
11957;SDS011;6039;52.576;13.348;2023-03-18T20:35:24;11.97;;;7.47;;
11957;SDS011;6039;52.576;13.348;2023-03-18T20:40:29;13.90;;;7.63;;
11957;SDS011;6039;52.576;13.348;2023-03-18T20:45:36;13.43;;;8.00;;
11957;SDS011;6039;52.576;13.348;2023-03-18T20:50:40;13.20;;;7.77;;
11957;SDS011;6039;52.576;13.348;2023-03-18T20:55:44;11.37;;;7.60;;
11957;SDS011;6039;52.576;13.348;2023-03-18T21:00:51;11.43;;;7.27;;
11957;SDS011;6039;52.576;13.348;2023-03-18T21:05:56;11.80;;;7.37;;
11957;SDS011;6039;52.576;13.348;2023-03-18T21:11:02;10.73;;;7.20;;
11957;SDS011;6039;52.576;13.348;2023-03-18T21:16:10;10.60;;;6.93;;
11957;SDS011;6039;52.576;13.348;2023-03-18T21:21:18;10.93;;;6.80;;
11957;SDS011;6039;52.576;13.348;2023-03-18T21:26:24;10.17;;;7.10;;
11957;SDS011;6039;52.576;13.348;2023-03-18T21:31:30;9.23;;;6.47;;
11957;SDS011;6039;52.576;13.348;2023-03-18T21:36:34;11.03;;;6.90;;
11957;SDS011;6039;52.576;13.348;2023-03-18T21:41:39;11.10;;;6.57;;
11957;SDS011;6039;52.576;13.348;2023-03-18T21:46:45;11.00;;;7.03;;
11957;SDS011;6039;52.576;13.348;2023-03-18T21:51:49;9.83;;;6.10;;
11957;SDS011;6039;52.576;13.348;2023-03-18T21:56:53;10.93;;;6.70;;
11957;SDS011;6039;52.576;13.348;2023-03-18T22:02:00;11.00;;;6.67;;
11957;SDS011;6039;52.576;13.348;2023-03-18T22:07:04;13.30;;;7.50;;
11957;SDS011;6039;52.576;13.348;2023-03-18T22:12:11;9.37;;;6.57;;
11957;SDS011;6039;52.576;13.348;2023-03-18T22:17:22;9.57;;;6.33;;
11957;SDS011;6039;52.576;13.348;2023-03-18T22:22:29;9.47;;;6.20;;
11957;SDS011;6039;52.576;13.348;2023-03-18T22:27:36;14.33;;;6.97;;
11957;SDS011;6039;52.576;13.348;2023-03-18T22:32:43;14.10;;;6.37;;
11957;SDS011;6039;52.576;13.348;2023-03-18T22:37:48;10.20;;;6.23;;
11957;SDS011;6039;52.576;13.348;2023-03-18T22:42:52;9.97;;;6.47;;
11957;SDS011;6039;52.576;13.348;2023-03-18T22:48:01;9.40;;;6.23;;
11957;SDS011;6039;52.576;13.348;2023-03-18T22:53:06;9.37;;;6.53;;
11957;SDS011;6039;52.576;13.348;2023-03-18T22:58:16;11.73;;;6.73;;
11957;SDS011;6039;52.576;13.348;2023-03-18T23:03:25;10.07;;;6.40;;
11957;SDS011;6039;52.576;13.348;2023-03-18T23:08:30;8.80;;;6.27;;
11957;SDS011;6039;52.576;13.348;2023-03-18T23:13:35;9.70;;;6.27;;
11957;SDS011;6039;52.576;13.348;2023-03-18T23:18:43;11.93;;;7.03;;
11957;SDS011;6039;52.576;13.348;2023-03-18T23:23:47;13.07;;;7.97;;
11957;SDS011;6039;52.576;13.348;2023-03-18T23:28:51;12.43;;;7.63;;
11957;SDS011;6039;52.576;13.348;2023-03-18T23:33:58;10.83;;;7.50;;
11957;SDS011;6039;52.576;13.348;2023-03-18T23:39:02;10.00;;;7.20;;
11957;SDS011;6039;52.576;13.348;2023-03-18T23:44:06;11.43;;;7.50;;
11957;SDS011;6039;52.576;13.348;2023-03-18T23:49:13;11.30;;;7.57;;
11957;SDS011;6039;52.576;13.348;2023-03-18T23:54:17;13.87;;;9.40;;
11957;SDS011;6039;52.576;13.348;2023-03-18T23:59:21;14.13;;;8.70;;
